Airport View

Enter AWOS ICAO identifier for current METAR.

ex. KFNL

KLGA 011351Z 27010KT 10SM FEW080 FEW100 19/11 A2990 RMK AO2 SLP124 T01940106

1 Oct 2020 14:03

Phone: 718-672-6317

Other Area AWOS: KNYC - KJRB - KJFK - KTEB

TAF KLGA 011147Z 0112/0218 23009KT P6SM SKC FM011400 25010KT P6SM FEW100 SCT250 TEMPO 0115/0119 25010G16KT FM020000 27008KT P6SM SCT090 FM020300 30006KT P6SM BKN080 FM021100 32007KT P6SM VCSH OVC050